Leechburg, Pennsylvania
Current Conditions -  °F | °C
As of 7:35 PM on Saturday 25 Oct 2014 (Local Time) from KBTP Reporting Station
Scattered Clouds Scattered Clouds  
Wind Chill: 16°   Ceiling: Unl
Heat Index: 16°   Visibility: 10mi
Dew Point: 10°   Wind: 10mph
Humidity: 68%   Direction: 230°SW
Pressure: 29.75"   Gusts: NA
Location:  40.63°N, 79.61°W
Report Text: KBTP 252335Z AUTO 23009KT 10SM FEW042 SCT050 16/10 A2975 RMK AO1
Loading
Personal Weather Stations






























Interactive Weather Map
Tropical Storm Tracking
New forecast layout! Learn more

10-Day Weather Forecast

Advertisements
Track Severe Weather on mobile